Time;durP1;ratioP1;P1;durP2;ratioP2;P2;SDS_P1;SDS_P2;PMS_P1;PMS_P2;Temp;Humidity;BMP_temperature;BMP_pressure;BME280_temperature;BME280_humidity;BME280_pressure;Samples;Min_cycle;Max_cycle;Signal;HPM_P1;HPM_P2
2022/07/27 00:00:51;;;;;;;0.00;0.00;;;21.20;95.40;;;;;;4951035;29;20050;-68
2022/07/27 00:03:17;;;;;;;0.00;0.00;;;21.30;95.60;;;;;;4952751;29;20436;-69
2022/07/27 00:05:42;;;;;;;0.25;0.20;;;21.30;95.70;;;;;;4952998;29;20023;-69
2022/07/27 00:08:08;;;;;;;0.93;0.52;;;21.20;95.80;;;;;;4951404;29;20518;-69
2022/07/27 00:10:35;;;;;;;0.05;0.00;;;21.20;95.90;;;;;;4952576;28;20043;-69
2022/07/27 00:13:03;;;;;;;0.50;0.30;;;21.40;95.70;;;;;;4952256;29;20031;-69
2022/07/27 00:15:29;;;;;;;0.55;0.08;;;21.50;95.50;;;;;;4954022;28;20149;-69
2022/07/27 00:17:57;;;;;;;0.45;0.15;;;21.50;95.40;;;;;;4956726;28;20463;-68
2022/07/27 00:20:23;;;;;;;0.10;0.10;;;21.40;95.80;;;;;;4954914;29;20039;-69
2022/07/27 00:22:48;;;;;;;0.00;0.00;;;21.40;95.80;;;;;;4955151;29;20038;-69
2022/07/27 00:25:14;;;;;;;0.00;0.00;;;21.40;95.80;;;;;;4956426;29;20038;-69
2022/07/27 00:27:40;;;;;;;0.20;0.20;;;21.40;96.00;;;;;;4954948;29;20058;-69
2022/07/27 00:30:06;;;;;;;0.10;0.10;;;21.30;96.00;;;;;;4955828;29;20126;-69
2022/07/27 00:32:32;;;;;;;0.10;0.10;;;21.30;96.30;;;;;;4955638;29;20031;-69
2022/07/27 00:34:57;;;;;;;0.20;0.15;;;21.20;96.50;;;;;;4956347;28;20373;-69
2022/07/27 00:37:23;;;;;;;0.00;0.00;;;21.10;96.80;;;;;;4956096;29;20046;-69
2022/07/27 00:39:49;;;;;;;0.43;0.40;;;21.10;97.10;;;;;;4956081;28;20412;-69
2022/07/27 00:42:15;;;;;;;0.55;0.55;;;21.00;97.20;;;;;;4955602;29;20109;-69
2022/07/27 00:44:40;;;;;;;0.10;0.10;;;21.00;97.60;;;;;;4955971;29;20078;-69
2022/07/27 00:47:06;;;;;;;0.22;0.22;;;20.90;97.80;;;;;;4970841;28;20118;-69
2022/07/27 00:49:32;;;;;;;0.30;0.28;;;20.80;98.10;;;;;;4955544;28;20540;-69
2022/07/27 00:51:58;;;;;;;0.28;0.28;;;20.80;98.10;;;;;;4956040;29;20031;-69
2022/07/27 00:54:24;;;;;;;1.55;0.40;;;20.80;98.10;;;;;;4955830;28;20118;-69
2022/07/27 00:56:50;;;;;;;0.00;0.00;;;20.80;98.20;;;;;;4954445;29;20031;-69
2022/07/27 00:59:16;;;;;;;0.10;0.10;;;20.80;98.30;;;;;;4955426;28;20023;-69
2022/07/27 01:01:42;;;;;;;0.05;0.05;;;20.80;98.40;;;;;;4954724;28;20032;-68
2022/07/27 01:04:08;;;;;;;0.13;0.05;;;20.80;98.40;;;;;;4955807;28;20117;-69
2022/07/27 01:06:34;;;;;;;0.10;0.08;;;20.80;98.50;;;;;;4967086;28;20066;-69
2022/07/27 01:11:46;;;;;;;0.22;0.22;;;20.70;98.40;;;;;;4987294;28;20035;-68
2022/07/27 01:14:14;;;;;;;0.15;0.15;;;20.70;98.70;;;;;;4989622;28;20039;-69
2022/07/27 01:16:41;;;;;;;0.20;0.20;;;20.70;98.70;;;;;;4957945;28;20037;-69
2022/07/27 01:19:12;;;;;;;0.65;0.40;;;20.70;98.90;;;;;;4969792;28;20031;-68
2022/07/27 01:21:38;;;;;;;0.05;0.05;;;20.40;99.60;;;;;;4970015;28;20480;-68
2022/07/27 01:24:04;;;;;;;0.10;0.10;;;20.50;99.40;;;;;;4962243;28;20039;-69
2022/07/27 01:26:32;;;;;;;0.00;0.00;;;20.60;99.20;;;;;;4974144;28;20494;-68
2022/07/27 01:28:59;;;;;;;0.00;0.00;;;20.80;98.90;;;;;;4989115;28;20086;-69
2022/07/27 01:31:26;;;;;;;0.00;0.00;;;20.90;98.50;;;;;;4989629;28;20039;-69
2022/07/27 01:33:52;;;;;;;1.55;0.50;;;20.90;98.50;;;;;;4988664;28;20131;-69
2022/07/27 01:36:18;;;;;;;0.00;0.00;;;21.00;98.30;;;;;;4989383;28;20058;-69
2022/07/27 01:38:44;;;;;;;0.28;0.28;;;20.90;98.30;;;;;;4988762;28;20035;-68
2022/07/27 01:41:10;;;;;;;0.35;0.17;;;21.00;98.00;;;;;;4981663;28;20023;-68
2022/07/27 01:43:36;;;;;;;0.35;0.30;;;21.00;98.00;;;;;;4954821;28;20057;-68
2022/07/27 01:46:02;;;;;;;0.00;0.00;;;21.00;98.00;;;;;;4970024;28;20464;-68
2022/07/27 01:48:29;;;;;;;0.00;0.00;;;21.00;98.00;;;;;;4969675;28;20063;-68
2022/07/27 01:50:55;;;;;;;0.00;0.00;;;20.80;98.50;;;;;;4969380;28;20035;-68
2022/07/27 01:53:22;;;;;;;0.00;0.00;;;20.80;98.60;;;;;;4952895;29;20484;-68
2022/07/27 01:55:49;;;;;;;0.03;0.03;;;20.90;98.60;;;;;;4954863;29;20114;-68
2022/07/27 01:58:15;;;;;;;0.00;0.00;;;20.90;98.60;;;;;;4969141;28;20035;-68
2022/07/27 02:00:42;;;;;;;0.00;0.00;;;20.70;98.80;;;;;;4954185;28;20027;-68
2022/07/27 02:03:10;;;;;;;0.00;0.00;;;20.80;98.80;;;;;;4954224;28;20027;-68
2022/07/27 02:05:37;;;;;;;0.00;0.00;;;20.90;98.70;;;;;;4969225;28;20035;-68
2022/07/27 02:08:05;;;;;;;0.00;0.00;;;20.80;98.60;;;;;;4968915;28;20404;-68
2022/07/27 02:10:33;;;;;;;0.10;0.10;;;20.80;98.70;;;;;;4969072;28;20027;-69
2022/07/27 02:12:59;;;;;;;0.00;0.00;;;20.70;98.90;;;;;;4969070;28;20058;-69
2022/07/27 02:15:27;;;;;;;0.00;0.00;;;20.70;99.00;;;;;;4977718;28;20049;-68
2022/07/27 02:17:54;;;;;;;0.30;0.30;;;20.70;99.10;;;;;;4973368;28;20094;-69
2022/07/27 02:20:23;;;;;;;0.00;0.00;;;20.70;99.00;;;;;;4971697;28;20027;-69
2022/07/27 02:22:50;;;;;;;0.05;0.03;;;20.70;99.20;;;;;;4987964;28;20027;-69
2022/07/27 02:25:18;;;;;;;0.10;0.10;;;20.60;99.30;;;;;;4971662;28;20085;-69
2022/07/27 02:27:45;;;;;;;0.00;0.00;;;20.60;99.60;;;;;;4988126;28;20126;-69
2022/07/27 02:30:13;;;;;;;0.00;0.00;;;20.40;99.90;;;;;;4987732;28;20090;-69
2022/07/27 02:32:41;;;;;;;0.00;0.00;;;20.40;99.90;;;;;;4987774;28;20077;-68
2022/07/27 02:35:07;;;;;;;0.00;0.00;;;20.30;99.90;;;;;;4987951;28;20031;-69
2022/07/27 02:37:33;;;;;;;0.63;0.52;;;20.40;99.90;;;;;;4973103;28;20034;-68
2022/07/27 02:39:58;;;;;;;0.40;0.38;;;20.40;99.90;;;;;;4972305;28;20023;-68
2022/07/27 02:42:24;;;;;;;0.05;0.05;;;20.30;99.90;;;;;;4973045;28;20518;-69
2022/07/27 02:44:49;;;;;;;0.00;0.00;;;20.40;99.90;;;;;;4973304;28;20023;-68
2022/07/27 02:47:15;;;;;;;0.00;0.00;;;20.50;99.90;;;;;;4972839;28;20360;-68
2022/07/27 02:49:41;;;;;;;0.05;0.00;;;20.40;99.90;;;;;;4972633;28;20081;-68
2022/07/27 02:52:07;;;;;;;0.65;0.47;;;20.50;99.90;;;;;;4972753;28;20031;-69
2022/07/27 02:54:33;;;;;;;0.00;0.00;;;20.50;99.90;;;;;;4972783;28;20478;-68
2022/07/27 02:57:03;;;;;;;8.68;1.35;;;20.50;99.90;;;;;;4973228;28;20082;-68
2022/07/27 02:59:29;;;;;;;0.00;0.00;;;20.40;99.90;;;;;;4986959;28;20026;-68
2022/07/27 03:01:55;;;;;;;0.00;0.00;;;20.40;99.90;;;;;;4972634;28;20392;-68
2022/07/27 03:04:21;;;;;;;0.10;0.10;;;20.40;99.90;;;;;;4972244;28;20105;-68
2022/07/27 03:06:47;;;;;;;0.15;0.13;;;20.40;99.90;;;;;;4987648;28;20030;-69
2022/07/27 03:09:13;;;;;;;0.70;0.32;;;20.50;99.90;;;;;;4972194;28;20454;-69
2022/07/27 03:11:39;;;;;;;0.32;0.20;;;20.50;99.90;;;;;;4972702;28;20038;-68
2022/07/27 03:14:05;;;;;;;0.25;0.00;;;20.40;99.90;;;;;;4972240;28;20032;-69
2022/07/27 03:16:31;;;;;;;0.00;0.00;;;20.40;99.90;;;;;;4955344;28;20059;-68
2022/07/27 03:18:57;;;;;;;0.00;0.00;;;20.40;99.90;;;;;;4967879;28;20118;-69
2022/07/27 03:21:24;;;;;;;0.22;0.20;;;20.50;99.90;;;;;;4953292;28;20031;-68
2022/07/27 03:23:50;;;;;;;0.00;0.00;;;20.50;99.90;;;;;;4951567;29;20444;-68
2022/07/27 03:26:17;;;;;;;0.52;0.15;;;20.40;99.90;;;;;;4968033;28;20035;-68
2022/07/27 03:28:42;;;;;;;0.00;0.00;;;20.40;99.90;;;;;;4952723;28;20027;-69
2022/07/27 03:31:08;;;;;;;0.00;0.00;;;20.50;99.90;;;;;;4953257;29;20471;-68
2022/07/27 03:33:34;;;;;;;0.08;0.08;;;20.50;99.90;;;;;;4952796;29;20035;-68
2022/07/27 03:36:01;;;;;;;0.00;0.00;;;20.50;99.90;;;;;;4967730;28;20038;-68
2022/07/27 03:38:27;;;;;;;1.08;0.80;;;20.40;99.90;;;;;;4953040;28;20037;-69
2022/07/27 03:40:53;;;;;;;0.00;0.00;;;20.30;99.90;;;;;;4967681;28;20252;-68
2022/07/27 03:43:19;;;;;;;0.00;0.00;;;20.10;99.90;;;;;;4953181;28;20053;-71
2022/07/27 03:45:45;;;;;;;0.95;0.47;;;20.00;99.90;;;;;;4958551;28;20393;-67
2022/07/27 03:48:10;;;;;;;0.45;0.30;;;20.30;99.90;;;;;;4979705;28;20038;-67
2022/07/27 03:50:36;;;;;;;0.10;0.10;;;20.50;99.90;;;;;;4986283;28;20058;-67
2022/07/27 03:53:02;;;;;;;1.08;0.98;;;20.80;99.90;;;;;;4973485;28;20032;-67
2022/07/27 03:55:28;;;;;;;0.03;0.03;;;20.90;99.30;;;;;;4971777;28;20105;-67
2022/07/27 03:57:54;;;;;;;0.00;0.00;;;21.10;99.00;;;;;;4971832;28;20031;-66
2022/07/27 04:00:21;;;;;;;0.00;0.00;;;21.20;98.50;;;;;;4971221;28;20081;-66
2022/07/27 04:02:47;;;;;;;0.00;0.00;;;21.10;98.50;;;;;;4986313;28;20037;-65
2022/07/27 04:05:13;;;;;;;0.93;0.20;;;21.10;98.30;;;;;;4971518;28;20026;-65
2022/07/27 04:07:39;;;;;;;0.00;0.00;;;20.90;98.80;;;;;;4971793;28;20395;-65
2022/07/27 04:10:07;;;;;;;0.00;0.00;;;20.90;98.40;;;;;;4986219;28;20085;-65
2022/07/27 04:12:36;;;;;;;0.00;0.00;;;21.00;98.30;;;;;;4932053;28;20051;-66
2022/07/27 04:15:03;;;;;;;0.10;0.10;;;20.70;98.80;;;;;;4982712;28;20027;-65
2022/07/27 04:17:29;;;;;;;0.00;0.00;;;20.60;99.00;;;;;;4971775;28;20101;-65
2022/07/27 04:19:55;;;;;;;0.00;0.00;;;20.70;98.50;;;;;;4971207;28;20113;-65
2022/07/27 04:22:20;;;;;;;0.20;0.20;;;20.90;98.00;;;;;;4971509;28;20039;-66
2022/07/27 04:24:46;;;;;;;0.00;0.00;;;21.10;97.60;;;;;;4971809;28;20411;-66
2022/07/27 04:27:12;;;;;;;0.00;0.00;;;21.00;97.40;;;;;;4971552;28;20423;-67
2022/07/27 04:29:38;;;;;;;0.00;0.00;;;21.20;97.20;;;;;;4969988;28;20110;-67
2022/07/27 04:32:04;;;;;;;0.00;0.00;;;21.10;97.10;;;;;;4938219;28;20066;-67
2022/07/27 04:34:30;;;;;;;0.00;0.00;;;21.10;97.00;;;;;;4977917;28;20037;-68
2022/07/27 04:36:56;;;;;;;0.00;0.00;;;20.90;97.50;;;;;;4986487;28;20031;-66
2022/07/27 04:39:21;;;;;;;1.67;0.90;;;20.70;97.80;;;;;;4971136;28;20030;-66
2022/07/27 04:41:47;;;;;;;0.38;0.20;;;20.80;97.40;;;;;;4971286;28;20042;-66
2022/07/27 04:44:13;;;;;;;0.00;0.00;;;20.80;97.70;;;;;;4969356;28;20027;-67
2022/07/27 04:46:39;;;;;;;0.10;0.10;;;21.00;97.40;;;;;;4971757;28;20023;-68
2022/07/27 04:49:05;;;;;;;0.00;0.00;;;20.70;97.50;;;;;;4969741;28;20031;-68
2022/07/27 04:51:31;;;;;;;0.00;0.00;;;20.80;97.70;;;;;;4971603;28;20111;-67
2022/07/27 04:53:56;;;;;;;0.00;0.00;;;20.80;97.50;;;;;;4985911;28;20106;-66
2022/07/27 04:56:22;;;;;;;0.15;0.15;;;20.80;97.80;;;;;;4971165;28;20047;-66
2022/07/27 04:58:48;;;;;;;0.00;0.00;;;20.80;97.90;;;;;;4970985;28;20042;-66
2022/07/27 05:01:14;;;;;;;0.00;0.00;;;20.60;98.10;;;;;;4971604;28;20026;-65
2022/07/27 05:03:41;;;;;;;0.00;0.00;;;20.00;99.80;;;;;;4973469;28;20106;-66
2022/07/27 05:06:07;;;;;;;0.00;0.00;;;20.20;99.70;;;;;;4974387;28;20046;-67
2022/07/27 05:08:34;;;;;;;1.98;0.95;;;20.40;99.20;;;;;;4973679;28;20042;-65
2022/07/27 05:11:00;;;;;;;0.00;0.00;;;20.70;98.60;;;;;;4974119;28;20158;-65
2022/07/27 05:13:26;;;;;;;0.00;0.00;;;20.60;98.50;;;;;;4972806;28;20106;-66
2022/07/27 05:15:51;;;;;;;0.00;0.00;;;20.30;99.10;;;;;;4973032;28;20692;-65
2022/07/27 05:18:17;;;;;;;0.00;0.00;;;20.40;99.00;;;;;;4989238;28;20110;-65
2022/07/27 05:20:43;;;;;;;0.10;0.10;;;20.70;98.60;;;;;;4974089;28;20510;-65
2022/07/27 05:23:10;;;;;;;0.00;0.00;;;20.70;98.60;;;;;;4973652;28;20031;-65
2022/07/27 05:25:36;;;;;;;0.05;0.05;;;20.70;98.50;;;;;;4974571;28;20026;-65
2022/07/27 05:28:01;;;;;;;0.00;0.00;;;20.70;98.80;;;;;;4988718;28;20042;-65
2022/07/27 05:30:27;;;;;;;0.20;0.20;;;20.80;98.60;;;;;;4971961;28;20117;-65
2022/07/27 05:32:53;;;;;;;0.00;0.00;;;21.00;98.20;;;;;;4973856;28;20027;-66
2022/07/27 05:35:20;;;;;;;0.00;0.00;;;21.20;98.60;;;;;;4974179;28;20062;-65
2022/07/27 05:37:46;;;;;;;0.00;0.00;;;21.30;97.90;;;;;;4984968;28;20521;-64
2022/07/27 05:40:12;;;;;;;0.35;0.30;;;21.40;97.60;;;;;;4977952;28;20058;-64
2022/07/27 05:42:41;;;;;;;0.00;0.00;;;21.40;97.40;;;;;;4953902;29;20031;-65
2022/07/27 05:45:08;;;;;;;0.00;0.00;;;21.40;97.40;;;;;;4984193;28;20479;-65
2022/07/27 05:47:34;;;;;;;0.03;0.00;;;21.50;97.40;;;;;;4973005;28;20038;-65
2022/07/27 05:50:00;;;;;;;0.00;0.00;;;21.40;97.40;;;;;;4975647;28;20046;-66
2022/07/27 05:52:25;;;;;;;0.00;0.00;;;21.60;97.10;;;;;;4988009;28;20150;-66
2022/07/27 05:54:51;;;;;;;0.10;0.10;;;21.30;97.50;;;;;;4973723;28;20773;-66
2022/07/27 05:57:17;;;;;;;0.00;0.00;;;21.10;97.80;;;;;;4973535;28;20034;-66
2022/07/27 05:59:43;;;;;;;1.08;0.35;;;21.20;97.90;;;;;;4972296;28;20097;-65
2022/07/27 06:02:08;;;;;;;0.00;0.00;;;21.40;97.40;;;;;;4972846;28;20479;-65
2022/07/27 06:04:35;;;;;;;0.00;0.00;;;21.50;97.10;;;;;;4973341;28;20101;-65
2022/07/27 06:09:45;;;;;;;0.00;0.00;;;21.70;96.80;;;;;;4971873;28;20031;-65
2022/07/27 06:12:11;;;;;;;0.00;0.00;;;21.60;96.60;;;;;;4973203;28;20041;-65
2022/07/27 06:14:38;;;;;;;0.00;0.00;;;21.70;96.50;;;;;;4973439;28;20511;-65
2022/07/27 06:17:04;;;;;;;0.00;0.00;;;21.70;96.70;;;;;;4973637;28;20257;-65
2022/07/27 06:19:30;;;;;;;0.00;0.00;;;21.60;96.50;;;;;;4971904;28;20084;-65
2022/07/27 06:21:57;;;;;;;0.00;0.00;;;21.60;96.50;;;;;;4971996;28;20019;-65
2022/07/27 06:24:23;;;;;;;0.00;0.00;;;21.70;96.20;;;;;;4973215;28;20031;-65
2022/07/27 06:26:48;;;;;;;0.00;0.00;;;21.80;96.00;;;;;;4972847;28;20105;-65
2022/07/27 06:29:14;;;;;;;0.20;0.10;;;21.90;96.00;;;;;;4973088;28;20034;-65
2022/07/27 06:31:40;;;;;;;0.00;0.00;;;21.50;96.40;;;;;;4972416;28;20369;-65
2022/07/27 06:34:06;;;;;;;0.00;0.00;;;21.50;96.60;;;;;;4972658;28;20380;-65
2022/07/27 06:36:31;;;;;;;0.00;0.00;;;21.40;96.80;;;;;;4972085;28;20039;-65
2022/07/27 06:38:57;;;;;;;0.00;0.00;;;21.40;96.90;;;;;;4955184;28;20042;-65
2022/07/27 06:41:23;;;;;;;0.00;0.00;;;21.60;96.70;;;;;;4971618;28;20023;-65
2022/07/27 06:43:48;;;;;;;0.00;0.00;;;21.50;96.90;;;;;;4972852;28;20427;-65
2022/07/27 06:46:14;;;;;;;0.20;0.20;;;21.70;96.50;;;;;;4972860;28;20034;-65
2022/07/27 06:48:40;;;;;;;0.00;0.00;;;21.70;96.50;;;;;;4972475;28;20031;-65
2022/07/27 06:51:07;;;;;;;0.10;0.00;;;21.90;96.20;;;;;;4972913;28;20169;-65
2022/07/27 06:53:33;;;;;;;2.80;1.00;;;21.90;96.20;;;;;;4972319;28;20391;-65
2022/07/27 06:56:02;;;;;;;0.28;0.20;;;21.90;96.00;;;;;;4973009;28;20093;-65
2022/07/27 06:58:32;;;;;;;0.00;0.00;;;21.80;96.20;;;;;;4972456;28;20031;-65
2022/07/27 07:01:00;;;;;;;0.20;0.20;;;21.80;96.30;;;;;;4970804;28;20162;-65
2022/07/27 07:03:27;;;;;;;0.00;0.00;;;21.90;95.90;;;;;;4972506;28;20051;-65
2022/07/27 07:05:53;;;;;;;0.13;0.13;;;21.90;95.70;;;;;;4971454;28;20031;-65
2022/07/27 07:08:21;;;;;;;0.15;0.15;;;21.80;95.70;;;;;;4972932;28;20170;-65
2022/07/27 07:10:47;;;;;;;0.00;0.00;;;21.90;95.90;;;;;;4972255;28;20134;-65
2022/07/27 07:13:14;;;;;;;0.00;0.00;;;22.00;95.50;;;;;;4971152;28;20116;-65
2022/07/27 07:15:42;;;;;;;0.00;0.00;;;22.20;95.30;;;;;;4972648;28;20027;-65
2022/07/27 07:18:11;;;;;;;0.00;0.00;;;22.30;95.00;;;;;;4971106;28;20034;-65
2022/07/27 07:20:38;;;;;;;0.00;0.00;;;22.10;95.20;;;;;;4970997;28;20117;-65
2022/07/27 07:23:04;;;;;;;0.00;0.00;;;22.00;95.40;;;;;;4971908;28;20575;-65
2022/07/27 07:25:32;;;;;;;0.00;0.00;;;22.00;95.30;;;;;;4954379;28;20438;-65
2022/07/27 07:27:58;;;;;;;0.30;0.28;;;22.10;94.80;;;;;;4972309;28;20030;-65
2022/07/27 07:30:25;;;;;;;0.25;0.10;;;22.20;94.70;;;;;;4971560;28;20454;-65
2022/07/27 07:32:51;;;;;;;0.00;0.00;;;22.30;94.80;;;;;;4971699;28;20035;-66
2022/07/27 07:35:17;;;;;;;0.00;0.00;;;22.30;94.80;;;;;;4971220;28;20046;-66
2022/07/27 07:37:43;;;;;;;0.00;0.00;;;22.20;94.60;;;;;;4972173;28;20034;-66
2022/07/27 07:40:09;;;;;;;0.25;0.20;;;22.60;93.80;;;;;;4971929;28;20558;-70
2022/07/27 07:43:01;;;;;;;0.00;0.00;;;22.60;93.90;;;;;;4969346;28;20035;-70
2022/07/27 07:45:29;;;;;;;0.13;0.13;;;22.10;94.40;;;;;;4986250;28;20073;-70
2022/07/27 07:47:55;;;;;;;0.10;0.08;;;22.30;94.20;;;;;;4971818;28;20085;-71
2022/07/27 07:50:23;;;;;;;0.00;0.00;;;22.40;94.00;;;;;;4971295;28;20494;-70
2022/07/27 07:52:50;;;;;;;0.00;0.00;;;22.60;93.70;;;;;;4971743;28;20034;-69
2022/07/27 07:55:22;;;;;;;0.00;0.00;;;22.80;93.50;;;;;;4980249;28;20039;-70
2022/07/27 07:57:48;;;;;;;0.00;0.00;;;22.80;93.30;;;;;;4967111;28;20516;-70
2022/07/27 08:00:15;;;;;;;0.77;0.40;;;22.90;93.20;;;;;;4976417;28;20054;-69
2022/07/27 08:02:58;;;;;;;0.00;0.00;;;22.80;93.20;;;;;;4970594;28;20023;-69
2022/07/27 08:05:25;;;;;;;0.52;0.38;;;23.10;93.00;;;;;;4972080;28;20031;-69
2022/07/27 08:07:52;;;;;;;0.03;0.03;;;23.10;93.00;;;;;;4970579;28;20030;-69
2022/07/27 08:10:20;;;;;;;1.02;0.65;;;23.10;92.90;;;;;;4970789;28;20034;-68
2022/07/27 08:12:51;;;;;;;0.00;0.00;;;23.40;92.60;;;;;;4970192;28;20042;-67
2022/07/27 08:15:18;;;;;;;0.00;0.00;;;22.70;93.20;;;;;;4985538;28;20117;-67
2022/07/27 08:17:44;;;;;;;0.00;0.00;;;22.60;93.40;;;;;;4985709;28;20514;-68
2022/07/27 08:20:12;;;;;;;1.98;1.00;;;22.70;93.40;;;;;;4970187;28;20066;-68
2022/07/27 08:22:39;;;;;;;0.00;0.00;;;22.30;94.20;;;;;;4985472;28;20031;-68
2022/07/27 08:25:05;;;;;;;0.00;0.00;;;22.70;93.90;;;;;;4971402;28;20118;-68
2022/07/27 08:27:31;;;;;;;0.00;0.00;;;23.10;92.90;;;;;;4970493;28;20487;-68
2022/07/27 08:29:57;;;;;;;0.00;0.00;;;22.90;93.20;;;;;;4971738;28;20035;-68
2022/07/27 08:32:23;;;;;;;2.72;0.98;;;23.40;92.50;;;;;;4971205;28;20408;-68
2022/07/27 08:34:51;;;;;;;0.00;0.00;;;23.60;92.20;;;;;;4986692;28;20018;-68
2022/07/27 08:37:17;;;;;;;0.00;0.00;;;23.50;91.50;;;;;;4973496;28;20387;-68
2022/07/27 08:39:42;;;;;;;0.00;0.00;;;23.70;91.40;;;;;;4975078;28;20039;-68
2022/07/27 08:42:10;;;;;;;0.10;0.05;;;23.80;91.50;;;;;;4990246;28;20033;-68
2022/07/27 08:44:40;;;;;;;0.00;0.00;;;23.90;91.60;;;;;;4949388;28;20035;-69
2022/07/27 08:47:12;;;;;;;0.00;0.00;;;23.60;91.60;;;;;;4972863;28;20030;-68
2022/07/27 08:49:40;;;;;;;0.00;0.00;;;23.80;91.20;;;;;;4973493;28;20035;-68
2022/07/27 08:52:09;;;;;;;1.40;0.55;;;23.80;91.10;;;;;;4973378;28;20133;-68
2022/07/27 08:54:39;;;;;;;0.00;0.00;;;23.80;90.70;;;;;;4989263;28;20085;-69
2022/07/27 08:57:08;;;;;;;1.55;0.52;;;23.30;91.20;;;;;;4989613;28;20034;-68
2022/07/27 08:59:33;;;;;;;0.00;0.00;;;23.70;91.20;;;;;;4974612;28;20038;-68
2022/07/27 09:01:59;;;;;;;0.00;0.00;;;23.60;91.30;;;;;;4974591;28;20026;-68
2022/07/27 09:04:25;;;;;;;0.00;0.00;;;23.20;91.40;;;;;;4973381;28;20035;-68
2022/07/27 09:06:51;;;;;;;0.00;0.00;;;22.60;92.40;;;;;;4974579;28;20062;-68
2022/07/27 09:09:20;;;;;;;0.00;0.00;;;23.10;92.30;;;;;;4974467;28;20039;-69
2022/07/27 09:12:09;;;;;;;0.00;0.00;;;23.30;91.40;;;;;;4989749;28;20042;-67
2022/07/27 09:14:39;;;;;;;1.45;0.63;;;23.80;91.00;;;;;;4989206;28;20483;-67
2022/07/27 09:17:26;;;;;;;0.00;0.00;;;24.10;90.80;;;;;;4989312;28;20514;-67
2022/07/27 09:20:04;;;;;;;0.00;0.00;;;23.90;91.00;;;;;;4988446;28;20066;-68
2022/07/27 09:22:55;;;;;;;0.13;0.13;;;24.00;91.00;;;;;;4972657;28;20665;-67
2022/07/27 09:25:27;;;;;;;0.00;0.00;;;24.30;90.50;;;;;;4989167;28;20027;-67
2022/07/27 09:27:56;;;;;;;0.05;0.00;;;24.00;90.70;;;;;;4974419;28;20394;-67
2022/07/27 09:30:23;;;;;;;0.00;0.00;;;24.60;90.10;;;;;;4988833;28;20114;-68
2022/07/27 09:33:02;;;;;;;0.03;0.03;;;24.60;90.10;;;;;;4988746;28;20547;-68
2022/07/27 09:35:33;;;;;;;0.45;0.30;;;24.60;90.00;;;;;;4989074;28;20038;-67
2022/07/27 09:38:23;;;;;;;0.43;0.43;;;24.70;88.90;;;;;;4972692;28;20499;-68
2022/07/27 09:41:05;;;;;;;0.00;0.00;;;24.70;88.60;;;;;;4988885;28;20117;-68
2022/07/27 09:43:47;;;;;;;0.52;0.52;;;24.80;88.40;;;;;;4988213;28;20042;-70
2022/07/27 09:46:13;;;;;;;0.00;0.00;;;24.60;89.30;;;;;;4973819;28;20105;-68
2022/07/27 09:48:39;;;;;;;0.13;0.13;;;24.40;89.90;;;;;;4973382;28;20117;-67
2022/07/27 09:51:09;;;;;;;0.00;0.00;;;24.40;89.30;;;;;;4991224;28;20031;-67
2022/07/27 09:53:35;;;;;;;0.08;0.00;;;24.30;89.50;;;;;;4988355;28;20146;-69
2022/07/27 09:56:07;;;;;;;0.43;0.43;;;24.30;88.60;;;;;;4989021;28;20082;-70
2022/07/27 09:58:50;;;;;;;1.40;0.88;;;24.00;89.80;;;;;;4973632;28;20035;-68
2022/07/27 10:01:21;;;;;;;0.00;0.00;;;23.90;89.70;;;;;;4953570;29;20051;-69
2022/07/27 10:03:51;;;;;;;0.00;0.00;;;23.90;89.80;;;;;;4953900;28;20023;-68
2022/07/27 10:06:17;;;;;;;0.00;0.00;;;24.00;89.70;;;;;;4954228;28;20055;-68
2022/07/27 10:08:46;;;;;;;0.00;0.00;;;24.30;89.00;;;;;;4968540;28;20110;-68
2022/07/27 10:11:12;;;;;;;1.23;0.82;;;24.50;88.60;;;;;;4968590;28;20035;-68
2022/07/27 10:13:39;;;;;;;4.47;1.25;;;24.60;88.00;;;;;;4955564;28;20045;-68
2022/07/27 10:16:06;;;;;;;0.00;0.00;;;24.80;87.70;;;;;;4988023;28;20043;-69
2022/07/27 10:18:55;;;;;;;0.08;0.08;;;24.60;88.00;;;;;;4973821;28;20050;-69
2022/07/27 10:21:23;;;;;;;0.00;0.00;;;24.80;88.60;;;;;;4987038;28;20031;-69
2022/07/27 10:24:05;;;;;;;0.00;0.00;;;25.10;87.80;;;;;;4971904;28;20070;-68
2022/07/27 10:26:33;;;;;;;0.00;0.00;;;25.10;86.90;;;;;;4987652;28;20424;-68
2022/07/27 10:29:05;;;;;;;1.25;0.65;;;25.30;87.10;;;;;;4973452;28;20070;-69
2022/07/27 10:31:37;;;;;;;0.00;0.00;;;25.30;86.20;;;;;;4973797;28;20037;-67
2022/07/27 10:34:09;;;;;;;0.00;0.00;;;25.10;86.50;;;;;;4972763;28;20030;-68
2022/07/27 10:36:51;;;;;;;0.00;0.00;;;25.10;86.30;;;;;;4987602;28;20090;-68
2022/07/27 10:39:35;;;;;;;17.90;1.73;;;25.10;86.40;;;;;;4972725;28;20030;-68
2022/07/27 10:42:23;;;;;;;0.00;0.00;;;25.10;86.10;;;;;;4973228;28;20426;-68
2022/07/27 10:44:54;;;;;;;0.00;0.00;;;25.10;87.00;;;;;;4973033;28;20058;-70
2022/07/27 10:47:47;;;;;;;0.00;0.00;;;25.10;85.60;;;;;;4972966;28;20582;-70
2022/07/27 10:50:15;;;;;;;0.00;0.00;;;25.20;85.40;;;;;;4972705;28;20035;-71
2022/07/27 10:52:53;;;;;;;0.73;0.55;;;25.40;85.90;;;;;;4972495;28;20043;-71
2022/07/27 10:55:31;;;;;;;0.00;0.00;;;25.10;85.70;;;;;;4972968;28;20038;-71
2022/07/27 10:58:13;;;;;;;0.00;0.00;;;25.40;85.50;;;;;;4971434;28;20054;-71
2022/07/27 11:00:47;;;;;;;0.00;0.00;;;25.30;84.90;;;;;;4970664;28;20534;-69
2022/07/27 11:03:25;;;;;;;0.10;0.10;;;25.30;84.70;;;;;;4972049;28;20391;-69
2022/07/27 11:06:11;;;;;;;0.22;0.22;;;25.40;84.40;;;;;;4973015;28;20034;-69
2022/07/27 11:08:43;;;;;;;0.00;0.00;;;25.30;84.50;;;;;;4973034;28;20049;-68
2022/07/27 11:11:18;;;;;;;0.40;0.30;;;25.50;83.90;;;;;;4972364;28;20058;-68
2022/07/27 11:13:46;;;;;;;0.10;0.00;;;25.60;83.70;;;;;;4972345;28;20442;-68
2022/07/27 11:16:15;;;;;;;3.10;0.68;;;25.60;83.20;;;;;;4987022;28;20066;-68
2022/07/27 11:18:42;;;;;;;0.10;0.05;;;25.70;83.00;;;;;;4972568;28;20027;-68
2022/07/27 11:21:24;;;;;;;0.35;0.32;;;25.50;82.90;;;;;;4972674;28;20045;-70
2022/07/27 11:23:56;;;;;;;0.03;0.03;;;25.60;82.60;;;;;;4972154;28;20082;-69
2022/07/27 11:26:28;;;;;;;0.20;0.20;;;25.10;83.70;;;;;;4987145;28;20034;-68
2022/07/27 11:28:54;;;;;;;0.63;0.57;;;25.40;82.60;;;;;;4970666;28;20038;-69
2022/07/27 11:31:20;;;;;;;5.05;0.45;;;25.80;81.90;;;;;;4988616;28;20031;-68
2022/07/27 11:33:58;;;;;;;0.10;0.10;;;26.00;81.20;;;;;;4991496;28;20085;-68
2022/07/27 11:36:43;;;;;;;0.00;0.00;;;26.00;80.60;;;;;;4991511;28;20034;-68
2022/07/27 11:39:15;;;;;;;0.28;0.28;;;25.60;80.80;;;;;;4991444;28;20034;-68
2022/07/27 11:41:43;;;;;;;22.38;0.63;;;25.70;80.80;;;;;;5003352;28;20023;-69
2022/07/27 11:44:15;;;;;;;0.85;0.38;;;26.00;80.10;;;;;;4984564;28;20039;-68
2022/07/27 11:46:44;;;;;;;2.63;1.27;;;26.00;79.60;;;;;;4972055;28;20030;-69
2022/07/27 11:49:27;;;;;;;0.30;0.10;;;26.00;79.40;;;;;;4971659;28;20533;-69
2022/07/27 11:51:59;;;;;;;0.00;0.00;;;26.10;79.20;;;;;;4970878;28;20027;-68
2022/07/27 11:54:34;;;;;;;0.10;0.10;;;26.00;78.20;;;;;;4971520;28;20034;-68
2022/07/27 11:57:11;;;;;;;0.38;0.10;;;25.90;77.90;;;;;;4972012;28;20035;-68
2022/07/27 11:59:40;;;;;;;3.50;0.63;;;26.10;78.30;;;;;;4971515;28;20046;-68
2022/07/27 12:02:12;;;;;;;0.08;0.03;;;26.30;77.50;;;;;;4986620;28;20031;-68
2022/07/27 12:04:49;;;;;;;0.63;0.30;;;25.90;77.30;;;;;;4986219;28;20102;-68
2022/07/27 12:07:16;;;;;;;1.02;0.30;;;26.10;77.40;;;;;;4971598;28;20027;-68
2022/07/27 12:09:53;;;;;;;0.17;0.13;;;26.20;76.50;;;;;;4971635;28;20562;-68
2022/07/27 12:12:37;;;;;;;0.08;0.08;;;26.40;76.60;;;;;;4975155;28;20034;-68
2022/07/27 12:15:23;;;;;;;0.30;0.30;;;26.30;76.20;;;;;;4990880;28;20041;-67
2022/07/27 12:17:56;;;;;;;0.00;0.00;;;26.40;76.10;;;;;;4975301;28;20104;-68
2022/07/27 12:20:32;;;;;;;0.10;0.10;;;26.30;75.80;;;;;;4975677;28;20089;-67
2022/07/27 12:23:05;;;;;;;0.00;0.00;;;25.80;75.30;;;;;;4990332;28;20038;-67
2022/07/27 12:25:32;;;;;;;0.00;0.00;;;25.70;76.90;;;;;;4975536;28;20026;-67
2022/07/27 12:28:01;;;;;;;0.10;0.10;;;25.90;76.10;;;;;;4975573;28;20042;-67
2022/07/27 12:30:36;;;;;;;0.10;0.08;;;26.10;76.30;;;;;;4973401;28;20030;-68
2022/07/27 12:33:06;;;;;;;0.30;0.25;;;26.30;76.10;;;;;;4975202;28;20030;-67
2022/07/27 12:35:45;;;;;;;0.10;0.00;;;26.30;75.30;;;;;;4990511;28;20035;-68
2022/07/27 12:38:12;;;;;;;0.70;0.70;;;26.80;75.20;;;;;;4990232;28;20393;-67
2022/07/27 12:41:04;;;;;;;2.30;0.43;;;27.40;73.50;;;;;;4989731;28;20030;-67
2022/07/27 12:43:30;;;;;;;0.77;0.50;;;27.60;73.10;;;;;;4972709;28;20046;-68
2022/07/27 12:45:56;;;;;;;0.00;0.00;;;27.80;72.10;;;;;;4990148;28;20414;-67
2022/07/27 12:48:26;;;;;;;0.10;0.10;;;28.10;72.00;;;;;;4975001;28;20251;-67
2022/07/27 12:51:04;;;;;;;0.15;0.10;;;28.20;71.50;;;;;;4974823;28;20402;-68
2022/07/27 12:53:31;;;;;;;0.00;0.00;;;28.30;70.50;;;;;;4989375;28;20035;-68
2022/07/27 12:56:01;;;;;;;0.30;0.20;;;28.60;70.00;;;;;;4989928;28;20047;-67
2022/07/27 12:58:27;;;;;;;0.00;0.00;;;28.60;69.20;;;;;;4975215;28;20062;-67
2022/07/27 13:00:53;;;;;;;0.00;0.00;;;28.50;69.50;;;;;;4974403;28;20069;-67